sensor_id;sensor_type;location;lat;lon;timestamp;P1;durP1;ratioP1;P2;durP2;ratioP2
7104;SDS011;3594;42.152;24.714;2023-04-21T00:02:04;6.43;;;3.97;;
7104;SDS011;3594;42.152;24.714;2023-04-21T00:04:30;5.65;;;3.50;;
7104;SDS011;3594;42.152;24.714;2023-04-21T00:06:56;6.82;;;3.63;;
7104;SDS011;3594;42.152;24.714;2023-04-21T00:09:25;6.03;;;3.38;;
7104;SDS011;3594;42.152;24.714;2023-04-21T00:11:51;4.53;;;3.33;;
7104;SDS011;3594;42.152;24.714;2023-04-21T00:14:16;6.78;;;4.15;;
7104;SDS011;3594;42.152;24.714;2023-04-21T00:16:41;5.80;;;3.80;;
7104;SDS011;3594;42.152;24.714;2023-04-21T00:19:07;5.28;;;3.70;;
7104;SDS011;3594;42.152;24.714;2023-04-21T00:21:32;5.68;;;3.88;;
7104;SDS011;3594;42.152;24.714;2023-04-21T00:23:58;5.88;;;3.88;;
7104;SDS011;3594;42.152;24.714;2023-04-21T00:26:24;7.13;;;4.10;;
7104;SDS011;3594;42.152;24.714;2023-04-21T00:28:49;5.93;;;3.97;;
7104;SDS011;3594;42.152;24.714;2023-04-21T00:31:14;6.57;;;4.47;;
7104;SDS011;3594;42.152;24.714;2023-04-21T00:33:40;7.75;;;4.63;;
7104;SDS011;3594;42.152;24.714;2023-04-21T00:36:06;7.07;;;3.95;;
7104;SDS011;3594;42.152;24.714;2023-04-21T00:38:31;7.63;;;3.92;;
7104;SDS011;3594;42.152;24.714;2023-04-21T00:40:57;8.93;;;4.72;;
7104;SDS011;3594;42.152;24.714;2023-04-21T00:43:22;7.73;;;4.33;;
7104;SDS011;3594;42.152;24.714;2023-04-21T00:45:49;10.73;;;5.60;;
7104;SDS011;3594;42.152;24.714;2023-04-21T00:48:15;8.02;;;4.40;;
7104;SDS011;3594;42.152;24.714;2023-04-21T00:50:41;8.52;;;4.72;;
7104;SDS011;3594;42.152;24.714;2023-04-21T00:53:08;8.73;;;5.07;;
7104;SDS011;3594;42.152;24.714;2023-04-21T00:55:35;7.60;;;4.87;;
7104;SDS011;3594;42.152;24.714;2023-04-21T00:58:01;8.77;;;4.93;;
7104;SDS011;3594;42.152;24.714;2023-04-21T01:00:27;9.13;;;5.00;;
7104;SDS011;3594;42.152;24.714;2023-04-21T01:02:53;8.70;;;5.47;;
7104;SDS011;3594;42.152;24.714;2023-04-21T01:05:18;10.23;;;5.97;;
7104;SDS011;3594;42.152;24.714;2023-04-21T01:07:44;10.50;;;5.43;;
7104;SDS011;3594;42.152;24.714;2023-04-21T01:10:09;8.20;;;5.27;;
7104;SDS011;3594;42.152;24.714;2023-04-21T01:12:44;9.60;;;5.33;;
7104;SDS011;3594;42.152;24.714;2023-04-21T01:15:11;9.33;;;5.30;;
7104;SDS011;3594;42.152;24.714;2023-04-21T01:17:37;8.20;;;5.40;;
7104;SDS011;3594;42.152;24.714;2023-04-21T01:20:06;9.27;;;5.33;;
7104;SDS011;3594;42.152;24.714;2023-04-21T01:22:37;9.83;;;5.63;;
7104;SDS011;3594;42.152;24.714;2023-04-21T01:25:05;8.83;;;5.43;;
7104;SDS011;3594;42.152;24.714;2023-04-21T01:27:32;9.37;;;5.60;;
7104;SDS011;3594;42.152;24.714;2023-04-21T01:29:58;8.73;;;5.27;;
7104;SDS011;3594;42.152;24.714;2023-04-21T01:32:24;11.03;;;6.13;;
7104;SDS011;3594;42.152;24.714;2023-04-21T01:34:51;10.37;;;5.60;;
7104;SDS011;3594;42.152;24.714;2023-04-21T01:37:22;10.90;;;5.83;;
7104;SDS011;3594;42.152;24.714;2023-04-21T01:39:50;9.80;;;5.83;;
7104;SDS011;3594;42.152;24.714;2023-04-21T01:42:19;10.73;;;6.00;;
7104;SDS011;3594;42.152;24.714;2023-04-21T01:44:48;9.80;;;5.93;;
7104;SDS011;3594;42.152;24.714;2023-04-21T01:47:14;7.93;;;5.00;;
7104;SDS011;3594;42.152;24.714;2023-04-21T01:49:40;10.20;;;5.63;;
7104;SDS011;3594;42.152;24.714;2023-04-21T01:52:06;8.97;;;5.17;;
7104;SDS011;3594;42.152;24.714;2023-04-21T01:54:31;8.03;;;4.83;;
7104;SDS011;3594;42.152;24.714;2023-04-21T01:56:57;9.03;;;5.30;;
7104;SDS011;3594;42.152;24.714;2023-04-21T01:59:22;8.53;;;5.10;;
7104;SDS011;3594;42.152;24.714;2023-04-21T02:01:48;9.27;;;5.50;;
7104;SDS011;3594;42.152;24.714;2023-04-21T02:04:14;8.77;;;5.17;;
7104;SDS011;3594;42.152;24.714;2023-04-21T02:06:39;8.80;;;4.73;;
7104;SDS011;3594;42.152;24.714;2023-04-21T02:09:05;10.60;;;5.20;;
7104;SDS011;3594;42.152;24.714;2023-04-21T02:11:30;7.23;;;4.97;;
7104;SDS011;3594;42.152;24.714;2023-04-21T02:13:56;8.40;;;4.60;;
7104;SDS011;3594;42.152;24.714;2023-04-21T02:16:21;10.07;;;5.07;;
7104;SDS011;3594;42.152;24.714;2023-04-21T02:18:50;8.47;;;5.00;;
7104;SDS011;3594;42.152;24.714;2023-04-21T02:21:17;7.47;;;4.30;;
7104;SDS011;3594;42.152;24.714;2023-04-21T02:23:43;8.10;;;4.57;;
7104;SDS011;3594;42.152;24.714;2023-04-21T02:26:08;7.17;;;4.27;;
7104;SDS011;3594;42.152;24.714;2023-04-21T02:28:34;12.33;;;4.63;;
7104;SDS011;3594;42.152;24.714;2023-04-21T02:30:59;10.90;;;4.70;;
7104;SDS011;3594;42.152;24.714;2023-04-21T02:33:25;7.70;;;4.27;;
7104;SDS011;3594;42.152;24.714;2023-04-21T02:35:50;6.87;;;4.23;;
7104;SDS011;3594;42.152;24.714;2023-04-21T02:38:16;6.70;;;4.30;;
7104;SDS011;3594;42.152;24.714;2023-04-21T02:40:41;6.80;;;4.63;;
7104;SDS011;3594;42.152;24.714;2023-04-21T02:43:07;7.13;;;4.30;;
7104;SDS011;3594;42.152;24.714;2023-04-21T02:45:32;10.10;;;4.80;;
7104;SDS011;3594;42.152;24.714;2023-04-21T02:47:57;8.50;;;4.33;;
7104;SDS011;3594;42.152;24.714;2023-04-21T02:50:23;14.60;;;4.73;;
7104;SDS011;3594;42.152;24.714;2023-04-21T02:52:49;6.67;;;3.90;;
7104;SDS011;3594;42.152;24.714;2023-04-21T02:55:14;10.63;;;4.77;;
7104;SDS011;3594;42.152;24.714;2023-04-21T02:57:40;9.03;;;4.70;;
7104;SDS011;3594;42.152;24.714;2023-04-21T03:00:05;6.47;;;4.50;;
7104;SDS011;3594;42.152;24.714;2023-04-21T03:02:31;6.77;;;4.00;;
7104;SDS011;3594;42.152;24.714;2023-04-21T03:04:57;6.40;;;4.70;;
7104;SDS011;3594;42.152;24.714;2023-04-21T03:07:22;8.63;;;5.07;;
7104;SDS011;3594;42.152;24.714;2023-04-21T03:09:48;8.33;;;5.13;;
7104;SDS011;3594;42.152;24.714;2023-04-21T03:12:13;8.63;;;4.87;;
7104;SDS011;3594;42.152;24.714;2023-04-21T03:14:38;9.80;;;5.50;;
7104;SDS011;3594;42.152;24.714;2023-04-21T03:17:04;8.90;;;5.30;;
7104;SDS011;3594;42.152;24.714;2023-04-21T03:19:29;6.17;;;3.87;;
7104;SDS011;3594;42.152;24.714;2023-04-21T03:21:55;7.40;;;4.57;;
7104;SDS011;3594;42.152;24.714;2023-04-21T03:24:20;8.43;;;5.33;;
7104;SDS011;3594;42.152;24.714;2023-04-21T03:26:46;9.67;;;5.33;;
7104;SDS011;3594;42.152;24.714;2023-04-21T03:29:11;7.80;;;4.90;;
7104;SDS011;3594;42.152;24.714;2023-04-21T03:31:36;7.50;;;4.73;;
7104;SDS011;3594;42.152;24.714;2023-04-21T03:34:02;9.97;;;4.73;;
7104;SDS011;3594;42.152;24.714;2023-04-21T03:36:27;6.67;;;4.43;;
7104;SDS011;3594;42.152;24.714;2023-04-21T03:38:52;10.63;;;5.83;;
7104;SDS011;3594;42.152;24.714;2023-04-21T03:41:18;7.97;;;5.10;;
7104;SDS011;3594;42.152;24.714;2023-04-21T03:43:43;9.10;;;5.13;;
7104;SDS011;3594;42.152;24.714;2023-04-21T03:46:18;10.07;;;5.27;;
7104;SDS011;3594;42.152;24.714;2023-04-21T03:48:45;10.03;;;5.37;;
7104;SDS011;3594;42.152;24.714;2023-04-21T03:51:11;11.10;;;6.47;;
7104;SDS011;3594;42.152;24.714;2023-04-21T03:53:36;9.60;;;5.77;;
7104;SDS011;3594;42.152;24.714;2023-04-21T03:56:01;9.77;;;5.73;;
7104;SDS011;3594;42.152;24.714;2023-04-21T03:58:27;8.87;;;5.07;;
7104;SDS011;3594;42.152;24.714;2023-04-21T04:00:52;7.47;;;4.93;;
7104;SDS011;3594;42.152;24.714;2023-04-21T04:03:17;5.88;;;4.32;;
7104;SDS011;3594;42.152;24.714;2023-04-21T04:05:43;7.00;;;4.47;;
7104;SDS011;3594;42.152;24.714;2023-04-21T04:08:08;7.28;;;4.43;;
7104;SDS011;3594;42.152;24.714;2023-04-21T04:10:33;8.23;;;4.85;;
7104;SDS011;3594;42.152;24.714;2023-04-21T04:12:59;8.23;;;4.32;;
7104;SDS011;3594;42.152;24.714;2023-04-21T04:15:25;8.10;;;5.25;;
7104;SDS011;3594;42.152;24.714;2023-04-21T04:17:51;6.75;;;4.65;;
7104;SDS011;3594;42.152;24.714;2023-04-21T04:20:16;6.65;;;4.53;;
7104;SDS011;3594;42.152;24.714;2023-04-21T04:22:42;8.02;;;5.13;;
7104;SDS011;3594;42.152;24.714;2023-04-21T04:25:07;7.60;;;4.60;;
7104;SDS011;3594;42.152;24.714;2023-04-21T04:27:33;8.00;;;4.90;;
7104;SDS011;3594;42.152;24.714;2023-04-21T04:29:59;9.50;;;5.30;;
7104;SDS011;3594;42.152;24.714;2023-04-21T04:32:24;7.22;;;4.75;;
7104;SDS011;3594;42.152;24.714;2023-04-21T04:34:52;9.32;;;5.10;;
7104;SDS011;3594;42.152;24.714;2023-04-21T04:37:20;8.80;;;5.10;;
7104;SDS011;3594;42.152;24.714;2023-04-21T04:39:46;8.40;;;5.15;;
7104;SDS011;3594;42.152;24.714;2023-04-21T04:42:11;8.73;;;4.93;;
7104;SDS011;3594;42.152;24.714;2023-04-21T04:44:37;9.40;;;5.28;;
7104;SDS011;3594;42.152;24.714;2023-04-21T04:47:02;7.53;;;4.72;;
7104;SDS011;3594;42.152;24.714;2023-04-21T04:49:28;7.00;;;5.03;;
7104;SDS011;3594;42.152;24.714;2023-04-21T04:51:53;7.53;;;4.88;;
7104;SDS011;3594;42.152;24.714;2023-04-21T04:54:19;8.07;;;5.20;;
7104;SDS011;3594;42.152;24.714;2023-04-21T04:56:45;7.95;;;5.38;;
7104;SDS011;3594;42.152;24.714;2023-04-21T04:59:10;9.43;;;5.40;;
7104;SDS011;3594;42.152;24.714;2023-04-21T05:01:36;9.45;;;5.78;;
7104;SDS011;3594;42.152;24.714;2023-04-21T05:04:02;11.27;;;5.78;;
7104;SDS011;3594;42.152;24.714;2023-04-21T05:06:28;10.88;;;5.95;;
7104;SDS011;3594;42.152;24.714;2023-04-21T05:08:54;10.90;;;6.00;;
7104;SDS011;3594;42.152;24.714;2023-04-21T05:11:20;8.57;;;5.35;;
7104;SDS011;3594;42.152;24.714;2023-04-21T05:13:45;8.95;;;5.18;;
7104;SDS011;3594;42.152;24.714;2023-04-21T05:16:11;8.93;;;5.05;;
7104;SDS011;3594;42.152;24.714;2023-04-21T05:18:36;9.23;;;4.97;;
7104;SDS011;3594;42.152;24.714;2023-04-21T05:21:02;8.88;;;5.40;;
7104;SDS011;3594;42.152;24.714;2023-04-21T05:23:27;7.43;;;4.97;;
7104;SDS011;3594;42.152;24.714;2023-04-21T05:25:53;7.78;;;4.72;;
7104;SDS011;3594;42.152;24.714;2023-04-21T05:28:18;8.48;;;4.82;;
7104;SDS011;3594;42.152;24.714;2023-04-21T05:30:43;8.45;;;5.00;;
7104;SDS011;3594;42.152;24.714;2023-04-21T05:33:09;7.53;;;4.60;;
7104;SDS011;3594;42.152;24.714;2023-04-21T05:35:34;7.53;;;4.82;;
7104;SDS011;3594;42.152;24.714;2023-04-21T05:38:00;7.63;;;4.70;;
7104;SDS011;3594;42.152;24.714;2023-04-21T05:40:25;9.07;;;5.40;;
7104;SDS011;3594;42.152;24.714;2023-04-21T05:42:51;7.90;;;4.85;;
7104;SDS011;3594;42.152;24.714;2023-04-21T05:45:16;8.88;;;4.47;;
7104;SDS011;3594;42.152;24.714;2023-04-21T05:47:41;7.38;;;4.65;;
7104;SDS011;3594;42.152;24.714;2023-04-21T05:50:09;8.43;;;5.25;;
7104;SDS011;3594;42.152;24.714;2023-04-21T05:52:35;7.93;;;4.80;;
7104;SDS011;3594;42.152;24.714;2023-04-21T05:55:01;6.80;;;4.05;;
7104;SDS011;3594;42.152;24.714;2023-04-21T05:57:27;6.75;;;4.20;;
7104;SDS011;3594;42.152;24.714;2023-04-21T05:59:52;6.45;;;4.65;;
7104;SDS011;3594;42.152;24.714;2023-04-21T06:02:18;6.53;;;4.10;;
7104;SDS011;3594;42.152;24.714;2023-04-21T06:04:43;5.75;;;4.25;;
7104;SDS011;3594;42.152;24.714;2023-04-21T06:07:09;6.05;;;3.83;;
7104;SDS011;3594;42.152;24.714;2023-04-21T06:09:37;8.25;;;4.38;;
7104;SDS011;3594;42.152;24.714;2023-04-21T06:12:05;6.95;;;3.85;;
7104;SDS011;3594;42.152;24.714;2023-04-21T06:14:31;5.75;;;3.70;;
7104;SDS011;3594;42.152;24.714;2023-04-21T06:16:56;6.75;;;3.70;;
7104;SDS011;3594;42.152;24.714;2023-04-21T06:19:22;4.60;;;3.53;;
7104;SDS011;3594;42.152;24.714;2023-04-21T06:21:47;6.30;;;3.72;;
7104;SDS011;3594;42.152;24.714;2023-04-21T06:24:13;9.05;;;4.07;;
7104;SDS011;3594;42.152;24.714;2023-04-21T06:26:38;8.30;;;4.03;;
7104;SDS011;3594;42.152;24.714;2023-04-21T06:29:04;10.55;;;4.35;;
7104;SDS011;3594;42.152;24.714;2023-04-21T06:31:29;5.90;;;3.67;;
7104;SDS011;3594;42.152;24.714;2023-04-21T06:33:54;5.32;;;3.75;;
7104;SDS011;3594;42.152;24.714;2023-04-21T06:36:20;6.57;;;4.25;;
7104;SDS011;3594;42.152;24.714;2023-04-21T06:38:47;5.53;;;3.95;;
7104;SDS011;3594;42.152;24.714;2023-04-21T06:41:12;6.47;;;3.58;;
7104;SDS011;3594;42.152;24.714;2023-04-21T06:43:38;7.30;;;4.03;;
7104;SDS011;3594;42.152;24.714;2023-04-21T06:46:03;6.63;;;4.15;;
7104;SDS011;3594;42.152;24.714;2023-04-21T06:48:29;7.03;;;4.10;;
7104;SDS011;3594;42.152;24.714;2023-04-21T06:50:54;6.95;;;4.20;;
7104;SDS011;3594;42.152;24.714;2023-04-21T06:53:20;6.50;;;4.28;;
7104;SDS011;3594;42.152;24.714;2023-04-21T06:55:46;5.70;;;3.90;;
7104;SDS011;3594;42.152;24.714;2023-04-21T06:58:12;6.40;;;3.90;;
7104;SDS011;3594;42.152;24.714;2023-04-21T07:00:38;6.35;;;4.00;;
7104;SDS011;3594;42.152;24.714;2023-04-21T07:03:03;6.40;;;4.07;;
7104;SDS011;3594;42.152;24.714;2023-04-21T07:05:28;8.25;;;3.65;;
7104;SDS011;3594;42.152;24.714;2023-04-21T07:07:54;6.93;;;4.15;;
7104;SDS011;3594;42.152;24.714;2023-04-21T07:10:24;7.13;;;3.67;;
7104;SDS011;3594;42.152;24.714;2023-04-21T07:12:50;6.53;;;4.18;;
7104;SDS011;3594;42.152;24.714;2023-04-21T07:15:15;6.57;;;4.07;;
7104;SDS011;3594;42.152;24.714;2023-04-21T07:17:41;7.03;;;4.55;;
7104;SDS011;3594;42.152;24.714;2023-04-21T07:20:06;6.60;;;4.03;;
7104;SDS011;3594;42.152;24.714;2023-04-21T07:22:32;7.60;;;3.90;;
7104;SDS011;3594;42.152;24.714;2023-04-21T07:25:00;6.65;;;3.97;;
7104;SDS011;3594;42.152;24.714;2023-04-21T07:27:26;9.30;;;3.50;;
7104;SDS011;3594;42.152;24.714;2023-04-21T07:29:51;5.80;;;4.05;;
7104;SDS011;3594;42.152;24.714;2023-04-21T07:32:17;8.73;;;4.20;;
7104;SDS011;3594;42.152;24.714;2023-04-21T07:34:42;5.85;;;3.70;;
7104;SDS011;3594;42.152;24.714;2023-04-21T07:37:10;6.82;;;4.82;;
7104;SDS011;3594;42.152;24.714;2023-04-21T07:39:36;7.43;;;4.75;;
7104;SDS011;3594;42.152;24.714;2023-04-21T07:42:01;8.55;;;4.32;;
7104;SDS011;3594;42.152;24.714;2023-04-21T07:44:27;7.07;;;4.70;;
7104;SDS011;3594;42.152;24.714;2023-04-21T07:46:53;6.72;;;4.25;;
7104;SDS011;3594;42.152;24.714;2023-04-21T07:49:18;8.32;;;4.47;;
7104;SDS011;3594;42.152;24.714;2023-04-21T07:51:44;6.65;;;4.13;;
7104;SDS011;3594;42.152;24.714;2023-04-21T07:54:09;7.70;;;4.80;;
7104;SDS011;3594;42.152;24.714;2023-04-21T07:56:35;6.80;;;4.57;;
7104;SDS011;3594;42.152;24.714;2023-04-21T07:59:00;6.57;;;4.18;;
7104;SDS011;3594;42.152;24.714;2023-04-21T08:01:26;5.93;;;4.03;;
7104;SDS011;3594;42.152;24.714;2023-04-21T08:03:51;8.32;;;4.57;;
7104;SDS011;3594;42.152;24.714;2023-04-21T08:06:17;6.78;;;4.38;;
7104;SDS011;3594;42.152;24.714;2023-04-21T08:08:42;6.10;;;3.65;;
7104;SDS011;3594;42.152;24.714;2023-04-21T08:11:07;9.20;;;4.32;;
7104;SDS011;3594;42.152;24.714;2023-04-21T08:13:33;6.75;;;4.22;;
7104;SDS011;3594;42.152;24.714;2023-04-21T08:15:59;6.22;;;4.15;;
7104;SDS011;3594;42.152;24.714;2023-04-21T08:18:25;6.85;;;4.38;;
7104;SDS011;3594;42.152;24.714;2023-04-21T08:20:50;5.35;;;3.75;;
7104;SDS011;3594;42.152;24.714;2023-04-21T08:23:16;5.38;;;3.55;;
7104;SDS011;3594;42.152;24.714;2023-04-21T08:25:42;5.60;;;3.55;;
7104;SDS011;3594;42.152;24.714;2023-04-21T08:28:07;6.88;;;4.32;;
7104;SDS011;3594;42.152;24.714;2023-04-21T08:30:32;5.15;;;3.60;;
7104;SDS011;3594;42.152;24.714;2023-04-21T08:32:58;8.05;;;4.03;;
7104;SDS011;3594;42.152;24.714;2023-04-21T08:35:23;9.73;;;4.18;;
7104;SDS011;3594;42.152;24.714;2023-04-21T08:37:49;4.63;;;3.25;;
7104;SDS011;3594;42.152;24.714;2023-04-21T08:40:15;5.22;;;3.67;;
7104;SDS011;3594;42.152;24.714;2023-04-21T08:42:40;6.25;;;3.75;;
7104;SDS011;3594;42.152;24.714;2023-04-21T08:45:06;5.88;;;3.60;;
7104;SDS011;3594;42.152;24.714;2023-04-21T08:47:32;5.47;;;3.88;;
7104;SDS011;3594;42.152;24.714;2023-04-21T08:49:58;5.93;;;3.65;;
7104;SDS011;3594;42.152;24.714;2023-04-21T08:52:24;5.30;;;3.47;;
7104;SDS011;3594;42.152;24.714;2023-04-21T08:54:49;4.70;;;3.35;;
7104;SDS011;3594;42.152;24.714;2023-04-21T08:57:17;5.63;;;3.92;;
7104;SDS011;3594;42.152;24.714;2023-04-21T08:59:43;5.93;;;4.03;;
7104;SDS011;3594;42.152;24.714;2023-04-21T09:02:16;7.05;;;3.58;;
7104;SDS011;3594;42.152;24.714;2023-04-21T09:04:52;5.15;;;3.50;;
7104;SDS011;3594;42.152;24.714;2023-04-21T09:07:29;4.60;;;3.40;;
7104;SDS011;3594;42.152;24.714;2023-04-21T09:09:55;6.45;;;3.42;;
7104;SDS011;3594;42.152;24.714;2023-04-21T09:12:21;6.20;;;3.72;;
7104;SDS011;3594;42.152;24.714;2023-04-21T09:14:48;6.07;;;3.78;;
7104;SDS011;3594;42.152;24.714;2023-04-21T09:17:15;4.70;;;3.38;;
7104;SDS011;3594;42.152;24.714;2023-04-21T09:19:41;5.13;;;3.38;;
7104;SDS011;3594;42.152;24.714;2023-04-21T09:22:07;6.82;;;3.55;;
7104;SDS011;3594;42.152;24.714;2023-04-21T09:24:32;6.45;;;3.40;;
7104;SDS011;3594;42.152;24.714;2023-04-21T09:26:58;5.50;;;3.28;;
7104;SDS011;3594;42.152;24.714;2023-04-21T09:29:28;5.03;;;3.25;;
7104;SDS011;3594;42.152;24.714;2023-04-21T09:31:53;5.20;;;3.33;;
7104;SDS011;3594;42.152;24.714;2023-04-21T09:34:24;7.13;;;3.85;;
7104;SDS011;3594;42.152;24.714;2023-04-21T09:37:00;9.15;;;3.25;;
7104;SDS011;3594;42.152;24.714;2023-04-21T09:39:30;4.25;;;2.92;;
7104;SDS011;3594;42.152;24.714;2023-04-21T09:41:56;4.90;;;3.45;;
7104;SDS011;3594;42.152;24.714;2023-04-21T09:44:23;4.68;;;3.22;;
7104;SDS011;3594;42.152;24.714;2023-04-21T09:46:49;4.57;;;2.90;;
7104;SDS011;3594;42.152;24.714;2023-04-21T09:49:18;4.95;;;3.20;;
7104;SDS011;3594;42.152;24.714;2023-04-21T09:51:47;4.28;;;2.90;;
7104;SDS011;3594;42.152;24.714;2023-04-21T09:54:16;6.22;;;3.03;;
7104;SDS011;3594;42.152;24.714;2023-04-21T09:56:43;4.50;;;3.13;;
7104;SDS011;3594;42.152;24.714;2023-04-21T09:59:18;3.63;;;2.65;;
7104;SDS011;3594;42.152;24.714;2023-04-21T10:01:45;5.40;;;3.00;;
7104;SDS011;3594;42.152;24.714;2023-04-21T10:04:13;4.60;;;3.22;;
7104;SDS011;3594;42.152;24.714;2023-04-21T10:06:39;7.10;;;3.35;;
7104;SDS011;3594;42.152;24.714;2023-04-21T10:09:05;4.18;;;2.65;;
7104;SDS011;3594;42.152;24.714;2023-04-21T10:11:33;7.78;;;3.20;;
7104;SDS011;3594;42.152;24.714;2023-04-21T10:14:01;3.95;;;2.95;;
7104;SDS011;3594;42.152;24.714;2023-04-21T10:16:27;4.45;;;2.58;;
7104;SDS011;3594;42.152;24.714;2023-04-21T10:18:52;4.38;;;2.80;;
7104;SDS011;3594;42.152;24.714;2023-04-21T10:21:18;5.13;;;3.08;;
7104;SDS011;3594;42.152;24.714;2023-04-21T10:23:49;4.68;;;3.15;;
7104;SDS011;3594;42.152;24.714;2023-04-21T10:26:24;3.05;;;2.58;;
7104;SDS011;3594;42.152;24.714;2023-04-21T10:31:34;4.05;;;2.75;;
7104;SDS011;3594;42.152;24.714;2023-04-21T10:34:15;9.88;;;2.92;;
7104;SDS011;3594;42.152;24.714;2023-04-21T10:36:48;3.30;;;2.63;;
7104;SDS011;3594;42.152;24.714;2023-04-21T10:39:35;3.75;;;2.90;;
7104;SDS011;3594;42.152;24.714;2023-04-21T10:44:43;4.75;;;2.90;;
7104;SDS011;3594;42.152;24.714;2023-04-21T10:47:14;4.13;;;2.70;;
7104;SDS011;3594;42.152;24.714;2023-04-21T10:50:12;3.53;;;2.70;;
7104;SDS011;3594;42.152;24.714;2023-04-21T10:52:38;3.65;;;2.60;;
7104;SDS011;3594;42.152;24.714;2023-04-21T10:55:05;4.97;;;2.72;;
7104;SDS011;3594;42.152;24.714;2023-04-21T10:57:31;3.80;;;2.55;;
7104;SDS011;3594;42.152;24.714;2023-04-21T10:59:58;4.00;;;3.00;;
7104;SDS011;3594;42.152;24.714;2023-04-21T11:02:24;3.80;;;2.47;;
7104;SDS011;3594;42.152;24.714;2023-04-21T11:04:50;4.18;;;2.58;;
7104;SDS011;3594;42.152;24.714;2023-04-21T11:07:18;3.30;;;2.45;;
7104;SDS011;3594;42.152;24.714;2023-04-21T11:09:44;3.08;;;2.30;;
7104;SDS011;3594;42.152;24.714;2023-04-21T11:12:13;4.18;;;2.67;;
7104;SDS011;3594;42.152;24.714;2023-04-21T11:14:43;4.57;;;2.70;;
7104;SDS011;3594;42.152;24.714;2023-04-21T11:17:12;4.47;;;3.10;;
7104;SDS011;3594;42.152;24.714;2023-04-21T11:19:40;3.63;;;2.60;;
7104;SDS011;3594;42.152;24.714;2023-04-21T11:22:06;3.65;;;2.25;;
7104;SDS011;3594;42.152;24.714;2023-04-21T11:24:32;3.22;;;2.25;;
7104;SDS011;3594;42.152;24.714;2023-04-21T11:26:58;3.95;;;2.40;;
7104;SDS011;3594;42.152;24.714;2023-04-21T11:29:26;6.20;;;3.17;;
7104;SDS011;3594;42.152;24.714;2023-04-21T11:31:54;4.05;;;2.28;;
7104;SDS011;3594;42.152;24.714;2023-04-21T11:34:20;3.05;;;2.25;;
7104;SDS011;3594;42.152;24.714;2023-04-21T11:36:47;5.63;;;2.80;;
7104;SDS011;3594;42.152;24.714;2023-04-21T11:39:16;3.30;;;2.45;;
7104;SDS011;3594;42.152;24.714;2023-04-21T11:41:45;3.38;;;2.50;;
7104;SDS011;3594;42.152;24.714;2023-04-21T11:44:12;3.60;;;2.55;;
7104;SDS011;3594;42.152;24.714;2023-04-21T11:46:44;7.32;;;3.80;;
7104;SDS011;3594;42.152;24.714;2023-04-21T11:49:11;6.88;;;3.30;;
7104;SDS011;3594;42.152;24.714;2023-04-21T11:51:38;4.20;;;2.70;;
7104;SDS011;3594;42.152;24.714;2023-04-21T11:54:11;5.40;;;4.10;;
7104;SDS011;3594;42.152;24.714;2023-04-21T11:56:42;3.45;;;2.55;;
7104;SDS011;3594;42.152;24.714;2023-04-21T11:59:10;4.28;;;2.67;;
7104;SDS011;3594;42.152;24.714;2023-04-21T12:01:43;4.72;;;2.50;;
7104;SDS011;3594;42.152;24.714;2023-04-21T12:04:14;4.03;;;2.70;;
7104;SDS011;3594;42.152;24.714;2023-04-21T12:06:41;3.60;;;2.67;;
7104;SDS011;3594;42.152;24.714;2023-04-21T12:09:16;5.07;;;2.60;;
7104;SDS011;3594;42.152;24.714;2023-04-21T12:11:45;3.05;;;2.65;;
7104;SDS011;3594;42.152;24.714;2023-04-21T12:14:13;5.93;;;3.92;;
7104;SDS011;3594;42.152;24.714;2023-04-21T12:16:40;3.97;;;2.60;;
7104;SDS011;3594;42.152;24.714;2023-04-21T12:19:05;3.85;;;2.60;;
7104;SDS011;3594;42.152;24.714;2023-04-21T12:21:31;4.43;;;2.45;;
7104;SDS011;3594;42.152;24.714;2023-04-21T12:23:56;3.35;;;2.42;;
7104;SDS011;3594;42.152;24.714;2023-04-21T12:26:22;3.33;;;2.67;;
7104;SDS011;3594;42.152;24.714;2023-04-21T12:28:50;2.90;;;2.13;;
7104;SDS011;3594;42.152;24.714;2023-04-21T12:31:16;3.33;;;2.55;;
7104;SDS011;3594;42.152;24.714;2023-04-21T12:33:42;3.45;;;2.33;;
7104;SDS011;3594;42.152;24.714;2023-04-21T12:36:07;3.15;;;2.38;;
7104;SDS011;3594;42.152;24.714;2023-04-21T12:38:33;3.30;;;2.20;;
7104;SDS011;3594;42.152;24.714;2023-04-21T12:40:58;3.90;;;2.30;;
7104;SDS011;3594;42.152;24.714;2023-04-21T12:43:24;3.47;;;2.45;;
7104;SDS011;3594;42.152;24.714;2023-04-21T12:45:50;3.33;;;2.50;;
7104;SDS011;3594;42.152;24.714;2023-04-21T12:48:17;3.47;;;2.38;;
7104;SDS011;3594;42.152;24.714;2023-04-21T12:50:44;3.78;;;2.55;;
7104;SDS011;3594;42.152;24.714;2023-04-21T12:53:11;3.28;;;2.50;;
7104;SDS011;3594;42.152;24.714;2023-04-21T12:55:36;3.45;;;2.25;;
7104;SDS011;3594;42.152;24.714;2023-04-21T12:58:02;5.18;;;3.17;;
7104;SDS011;3594;42.152;24.714;2023-04-21T13:00:27;3.10;;;2.38;;
7104;SDS011;3594;42.152;24.714;2023-04-21T13:02:53;3.38;;;2.40;;
7104;SDS011;3594;42.152;24.714;2023-04-21T13:05:18;3.92;;;2.88;;
7104;SDS011;3594;42.152;24.714;2023-04-21T13:07:44;3.08;;;2.42;;
7104;SDS011;3594;42.152;24.714;2023-04-21T13:10:09;4.40;;;2.50;;
7104;SDS011;3594;42.152;24.714;2023-04-21T13:12:35;4.03;;;2.20;;
7104;SDS011;3594;42.152;24.714;2023-04-21T13:15:01;2.63;;;1.90;;
7104;SDS011;3594;42.152;24.714;2023-04-21T13:17:27;2.75;;;2.10;;
7104;SDS011;3594;42.152;24.714;2023-04-21T13:19:54;3.63;;;2.30;;
7104;SDS011;3594;42.152;24.714;2023-04-21T13:22:20;3.03;;;2.30;;
7104;SDS011;3594;42.152;24.714;2023-04-21T13:24:46;2.63;;;2.40;;
7104;SDS011;3594;42.152;24.714;2023-04-21T13:27:12;4.07;;;2.65;;
7104;SDS011;3594;42.152;24.714;2023-04-21T13:29:37;3.55;;;2.40;;
7104;SDS011;3594;42.152;24.714;2023-04-21T13:32:03;3.25;;;2.45;;
7104;SDS011;3594;42.152;24.714;2023-04-21T13:34:31;2.60;;;2.08;;
7104;SDS011;3594;42.152;24.714;2023-04-21T13:36:58;3.33;;;2.60;;
7104;SDS011;3594;42.152;24.714;2023-04-21T13:39:24;5.60;;;2.60;;
7104;SDS011;3594;42.152;24.714;2023-04-21T13:41:50;3.45;;;2.50;;
7104;SDS011;3594;42.152;24.714;2023-04-21T13:44:16;3.78;;;2.30;;
7104;SDS011;3594;42.152;24.714;2023-04-21T13:46:42;3.65;;;2.50;;
7104;SDS011;3594;42.152;24.714;2023-04-21T13:49:08;3.85;;;2.25;;
7104;SDS011;3594;42.152;24.714;2023-04-21T13:51:34;5.82;;;2.42;;
7104;SDS011;3594;42.152;24.714;2023-04-21T13:53:59;3.53;;;2.45;;
7104;SDS011;3594;42.152;24.714;2023-04-21T13:56:25;4.90;;;2.58;;
7104;SDS011;3594;42.152;24.714;2023-04-21T13:58:50;6.15;;;2.85;;
7104;SDS011;3594;42.152;24.714;2023-04-21T14:01:15;4.50;;;2.50;;
7104;SDS011;3594;42.152;24.714;2023-04-21T14:03:41;3.60;;;2.72;;
7104;SDS011;3594;42.152;24.714;2023-04-21T14:06:07;4.10;;;2.70;;
7104;SDS011;3594;42.152;24.714;2023-04-21T14:08:33;4.32;;;2.58;;
7104;SDS011;3594;42.152;24.714;2023-04-21T14:10:59;3.67;;;2.65;;
7104;SDS011;3594;42.152;24.714;2023-04-21T14:13:24;2.75;;;2.30;;
7104;SDS011;3594;42.152;24.714;2023-04-21T14:15:55;4.32;;;3.08;;
7104;SDS011;3594;42.152;24.714;2023-04-21T14:18:20;5.55;;;2.72;;
7104;SDS011;3594;42.152;24.714;2023-04-21T14:20:46;3.42;;;2.40;;
7104;SDS011;3594;42.152;24.714;2023-04-21T14:23:11;3.55;;;2.55;;
7104;SDS011;3594;42.152;24.714;2023-04-21T14:25:36;3.38;;;2.42;;
7104;SDS011;3594;42.152;24.714;2023-04-21T14:28:02;2.72;;;2.28;;
7104;SDS011;3594;42.152;24.714;2023-04-21T14:30:31;3.25;;;2.45;;
7104;SDS011;3594;42.152;24.714;2023-04-21T14:32:57;3.25;;;2.30;;
7104;SDS011;3594;42.152;24.714;2023-04-21T14:35:22;3.10;;;2.22;;
7104;SDS011;3594;42.152;24.714;2023-04-21T14:37:48;3.13;;;2.60;;
7104;SDS011;3594;42.152;24.714;2023-04-21T14:40:13;2.83;;;2.30;;
7104;SDS011;3594;42.152;24.714;2023-04-21T14:42:38;3.45;;;2.50;;
7104;SDS011;3594;42.152;24.714;2023-04-21T14:45:05;3.15;;;2.50;;
7104;SDS011;3594;42.152;24.714;2023-04-21T14:47:31;3.65;;;2.75;;
7104;SDS011;3594;42.152;24.714;2023-04-21T14:49:57;3.78;;;2.53;;
7104;SDS011;3594;42.152;24.714;2023-04-21T14:52:23;3.85;;;2.75;;
7104;SDS011;3594;42.152;24.714;2023-04-21T14:54:49;4.28;;;2.80;;
7104;SDS011;3594;42.152;24.714;2023-04-21T14:57:15;6.00;;;2.63;;
7104;SDS011;3594;42.152;24.714;2023-04-21T14:59:41;4.20;;;2.63;;
7104;SDS011;3594;42.152;24.714;2023-04-21T15:02:08;2.78;;;2.30;;